Aérodrome :
LOGIN :

S'inscrire | Disclaimer

   EN    FR    IT 

 










Légende :    VFR   VFR Marginal   IFR   IFR Intensif   IFR Très Intensif
Visi : 
Plafond : 
>= 8 km
>= 3000ft
5 à 8 km
1000 à 3000 ft
1500m à 5 km
500 à 1000 ft
800 à 1500m
200 à 500 ft
< 800m
< 200 ft
Symboles :   Orages  Brouillard  Fortes neiges  Fortes précipitations  Vent > 20 kt
SIGMETs :   Divers  Orages  Givrage  Turbulence  Onde Orograph.  Cendres Volcan.






- Altitude de l'aérodrome : 397 ft
- Code IATA : IAS


LRIA - Iasi

DERNIER METAR :
  • 131700Z 32012KT CAVOK 20/06 Q1016

METARs EXPIRÉS :
  • 131630Z 32013KT CAVOK 20/04 Q1016
  • 131600Z 33015KT CAVOK 21/06 Q1016
  • 131530Z 32014KT CAVOK 21/05 Q1016
  • 131500Z 33015KT CAVOK 21/05 Q1016
  • 131430Z 33015KT CAVOK 21/07 Q1016

TAF TAF LRIA
Valide du 13 à 15h jusqu'au 14 à 00h UTC


131400Z 1315/1400 32015KT 9999 BKN040
PROB40
TEMPO 1315/1317 32015G25KT
BECMG 1318/1320 32005KT



MET'MAP, la Météo Aéronautique d'un coup d'oeil ! - Copyright ORBIFLY Décembre 2007 - Disclaimer

ORBIFLY MET'MAP TEAM :

Programmation & Développement : Alexandra Zaïnal
Sur une idée originale de : Baudouin d'Aumeries
Assistance à la programmation : Marc-Olivier Méhu
Soutien technique & logistique : Manuel Goepfert

Contact : metmap@orbifly.com




SOURCES & CREDITS :

   NOAA